Main page
METAR-TAF:

METAR-TAF

Airports :

Maragheh, Iran

latitude: 37-20-55N, longitude: 046-07-35E, elevation: 1340 m

Current weather observation

The report was made 1 hour and 3 minutes ago, at 09:00 UTC
Calm wind
Temperature 4°C
Humidity 100%
Pressure 1018 hPa
Visibility: 0500 m
Overcast at a height of 1000 ft
fog

METAR: OITM 240900Z 00000KT 0500 FG OVC010 04/04 Q1018

Time: 13:33 (10:03 UTC)


TAF: missing

Weather observations and forecasts of more than 4000 airports (METAR and TAF reports).

The available stations are represented by yellow and red dots on the map.

Hover mouse over dot to see the name of the station.

Then click to see weather observations and forecasts.

To change the map : click on the green buttons with a black cross to zoom in, on the green button with a dash to zoom out, or on the green arrows for adjacent maps.


METAR-TAF: